Aviation Digital Data Service (ADDS)

Output produced by METARs form (1326 UTC 20 July 2019)
found at http://www.aviationweather.gov/metar/data/
 
Forecast for: LTAC (ANKARA/ESENBOGA , TR)
Text: TAF LTAC 201040Z 2012/2112 VRB02KT 9999 SCT040
Forecast period: 1200 to 1600 UTC 20 July 2019
Forecast type: FROM: standard forecast or significant change
Winds: variable direction winds at 2 MPH (2 knots; 1.0 m/s)
Visibility: 6 or more miles 10+ km)
Ceiling: at least 12,000 feet AGL
Clouds: scattered clouds at 4000 feet AGL
Weather: no significant weather forecast for this period
Text: BECMG 2016/2018 CAVOK
Forecast period: 1600 UTC 20 July 2019 to 0600 UTC 21 July 2019
Forecast type: BECOMING: Conditions expected to become as follows by 1800 UTC 20 July 2019
Winds: variable direction winds at 2 MPH (2 knots; 1.0 m/s)
Visibility: 6 or more miles 10+ km)
Ceiling: unknown
Clouds: missing
Weather: NSW  (no significant weather)
Text: BECMG 2106/2108 SCT040
Forecast period: 0600 to 1200 UTC 21 July 2019
Forecast type: BECOMING: Conditions expected to become as follows by 0800 UTC 21 July 2019
Winds: variable direction winds at 2 MPH (2 knots; 1.0 m/s)
Visibility: 6 or more miles 10+ km)
Ceiling: at least 12,000 feet AGL
Clouds: scattered clouds at 4000 feet AGL
Weather: NSW  (no significant weather)